Résultat Trail 27 km 2016

Pas de Trail en 2017

L'association des Fouladous à Balaruc les bains organisatrice du Trail des Sangliers depuis 11 ans consécutives vous informe qu'il n'y aura pas de Trail organisé en 2017. Les Fouladous souhaitent une pause au calendrier 2017 afin de redéfinir un avenir à ce trail. Nous vous remercions de votre compréhension. Les Fouladous.

Calendrier - Manifestations - Fouladous

Lun Mar Mer Jeu Ven Sam Dim
1
2
3
5
6
8
11
14
16
17
19
20
21
22
23
24
25
26
27
28
29
30
31
Prochaines sorties
  • S'inscrire
SCRATCH 27 Km                    
PLACE DOSSARD NOM PRENOM SEXE /sx CAT /cat CLUB TEMPS Vit.
1 385 MOULAI TONY M 1 V1 1 CLUB PÉLÉEN 01:53:43 14,2
2 92 BROCHOT BERTRAND M 2 SE 1 TEAM OPTISPORT UGLOW 01:54:14 14,2
3 250 VICENTE LAURENT M 3 SE 2 ALES CÉVENNES ATHLÉTISME 01:55:15 14,1
4 196 CARDINAL GEOFFREY M 4 SE 3 ACA SAINT YRIEIX 01:55:45 14
5 368 MOURGUES FRANÇOIS M 5 SE 4 BUFF France Team/Hoka/Les Saisies 01:56:43 13,9
6 359 GALAND BENOÎT M 6 SE 5 CASTRES ATHLÉTISME 01:58:03 13,7
7 91 GAULT EMMANUEL M 7 V1 2   01:58:18 13,7
8 126 SOULES JEAN M 8 V1 3 ENTENTE ATLETIQUE GRENOBLE 01:59:18 13,6
9 422 GHIRARD FLORENT M 9 SE 6   02:00:38 13,4
10 460 MIRASSOU JÉRÔME M 10 SE 7 team CRAFT SALMING 02:02:35 13,2
11 387 MOULAI JEREMY M 11 SE 8 COUREURS DU MONDE EN ISERE 02:03:10 13,2
12 253 FRANCOIS THIERRY M 12 SE 9 ALES CEVENNES ATHLETIMSE 02:03:25 13,1
13 30 BUSSEUIL GWENAËL M 13 SE 10 BORDEAUX ATHLE 02:03:45 13,1
14 121 CALASTRENC LUDOVIC M 14 SE 11 AC LA ROCHE SUR YON 02:04:09 13
15 251 CHAPEAU DAVID M 15 SE 12 ALES CÉVENNES ATHLÉTISME 02:05:03 13
16 484 CHEMINI AZEDDINE M 16 SE 13 Mairie sportive de fort de FRANCE ( MARTINIQUE ) 02:05:32 12,9
17 78 ASSIER RODERICK M 17 SE 14 UAMaurienne St Jean 02:06:14 12,8
18 119 FRECHET CLEMENT M 18 SE 15 MA2M 02:07:25 12,7
19 394 MONGABURU SÉBASTIEN M 19 SE 16 CAP GARONNE LE PRADET 02:07:26 12,7
20 311 BALAHACHI AHAMADI M 20 SE 17 S/L A. CARBON BLANC LORMONT 02:07:28 12,7
21 352 ROBERT DAVID M 21 SE 18 ALES CÉVENNES ATHLÉTISME 02:07:37 12,7
22 252 RAISSAC QUENTIN M 22 ES 1 ALES CÉVENNES ATHLÉTISME 02:07:37 12,7
23 413 HARATYK ANTOINE M 23 SE 19 ATHLÉ 21 AOA 02:08:49 12,6
24 409 MIGLIORE RÉMI M 24 V2 1 U A Villenoy 02:10:58 12,4
25 412 LOISON NICOLAS M 25 SE 20 ASAD AUBENAS 02:11:36 12,3
26 35 SERVIZET DAVID M 26 V1 4 AL ECHIROLLES 02:12:06 12,3
27 66 MALDONADO GUILLAUME M 27 SE 21 AS POISSY 02:12:47 12,2
28 76 DROUIN DONATIEN M 28 SE 22 ACVA Section trail 02:13:39 12,1
29 213 SCHRAPP NICOLAS M 29 SE 23 PEROLS FOOTING 02:14:10 12,1
30 6 LAFAYE CÉLINE F 1 SE 1 S/L AL ECHIROLLES 02:14:28 12
31 226 TREMOLIERES SEBASTIEN M 30 V1 5 PEROLS FOOTING 02:14:56 12
32 280 CACHARD OLIVIER M 31 V1 6 CLERMONT ENDURANCE 02:15:20 12
33 279 MAJEWSKI DAVID M 32 SE 24 TAILLEFER TRAIL TEAM 02:15:40 11,9
34 294 CABOCHE BRUNO M 33 V2 2 ALES CÉVENNES ATHLÉTISME 02:15:47 11,9
35 374 DELHOM JONATHAN M 34 SE 25 SC ARLES 02:15:56 11,9
36 232 GIMENEZ LAURENT M 35 SE 26 ENTENTE POUSSAN BALARUC 02:16:48 11,8
37 62 BATIFOULIER LIONEL M 36 V1 7 PLAUZAT SPORT NATURE 02:16:53 11,8
38 57 AMIEL PASCAL M 37 V1 8 ACBP 02:17:03 11,8
39 149 BLOT KÉVIN M 38 SE 27 MAAM-Balaruc les bains 02:17:17 11,8
40 69 DELMI-DEYIRMENDJIAN NICOLAS M 39 ES 2 Team Provence Endurance 02:17:46 11,8
41 271 DIAZ BRUNO M 40 SE 28 fouladous balaruc 02:18:00 11,7
42 179 CHOUCHOU ADRIEN M 41 SE 29 MA2M 02:18:19 11,7
43 339 DIAZ ANTONY M 42 SE 30   02:19:03 11,6
44 64 ROUXEL SÉBASTIEN M 43 SE 31   02:19:23 11,6
45 114 CASTET FLORENT M 44 SE 32 BLAGNAC SC 02:19:32 11,6
46 14 BONNOT FRANÇOIS M 45 SE 33 TRAIL VERNET AVENTURE 02:19:54 11,6
47 68 TREGAN BENJAMIN M 46 SE 34   02:19:59 11,6
48 171 MEYER MATHIEU M 47 SE 35 MONTPELLIER AGGLO ATHETIC MEDITERRANÉE  02:21:59 11,4
49 61 BESOMBES THIERRY M 48 V1 9 PLAUZAT SPORT NATURE 02:22:48 11,3
50 113 ALBERT JULIEN M 49 SE 36 BLAGNAC SC 02:22:56 11,3
51 301 LORENZO PHILIPPE M 50 V2 3 A.L. ECHIROLLES 02:23:05 11,3
52 181 EHRHARD YOANN M 51 SE 37   02:23:52 11,3
53 497 PLUTA RAFAL M 52 V1 10 Vias Trail Running 02:23:56 11,3
54 410 MARTINEZ CLAUDE M 53 V1 11 Defiman Triathlon Pezenas 02:24:07 11,2
55 452 SIMON FRANCK M 54 V1 12   02:24:46 11,2
56 245 COSTE ROMAIN M 55 SE 38 TAILLEFER TRAIL TEAM 02:24:49 11,2
57 313 FABRE GÉRARD M 56 V2 4 COURIR À FABRÈGUES 02:26:28 11,1
58 29 BRUN PATRICE M 57 V2 5 MA2M Montpellier 02:26:36 11
59 218 LAMBOLEY CHRISTOPHE M 58 V1 13 VO2 TRIATHLON MONTPELLIER 02:26:42 11
60 203 RIGAUDIERE VINCENT M 59 V1 14 ALE ECHIROLLES 02:26:51 11
61 8 BLANC FLORENCE F 2 V1 1 ALES CEVENNES ATHLETIMSE 02:27:05 11
62 95 BAUDET MICHAEL M 60 SE 39 AJS LA GARDE 02:27:06 11
63 140 BAUDET STEPHANE M 61 V1 15 AJS LA GARDE 02:27:06 11
64 227 VAZQUEZ THIERRY M 62 V2 6 TRI RUN FRONTIGNAN 02:27:58 10,9
65 223 GALLIANO HERVE M 63 V1 16 TCVD 02:28:24 10,9
66 100 DANGUILHEN GÉRAUD M 64 V1 17 ALAJM SAINT GILLES 02:28:33 10,9
67 477 WAGENHEIM LAURENT M 65 SE 40 CASTRIES RUNNING CLUB 02:28:43 10,9
68 475 SULTANA VINCENT M 66 ES 3 PEROLS FOOTING 02:28:59 10,9
69 98 MATEOS STEPHANE M 67 SE 41   02:29:14 10,9
70 201 LEFEBVRE CHRISTOPHE M 68 V1 18 AL ECHIROLES 02:29:16 10,9
71 103 BALLET-BAZ JEREMIE M 69 SE 42 GRANDE MOTTE TRIATHLON (GMT) 02:29:25 10,8
72 504 CUSSOT SYLVAINE F 3 SE 2   02:29:30 10,8
73 276 CACHARD SABRINA F 4 V1 2 CLERMONT ENDURANCE 02:29:37 10,8
74 345 BOUET NATHALIE F 5 V1 3 VEDAS ENDURANCE 02:29:39 10,8
75 130 COURSIER JOCELYN M 70 SE 43 COURIR A VAUVERT 02:29:57 10,8
76 246 BAUDE QUENTIN M 71 SE 44   02:30:06 10,8
77 270 REBOLLO PONCE FABIAN M 72 SE 45   02:30:25 10,8
78 458 POUDEVIGNE GAUTHIER M 73 SE 46 Marathon du pic Teyran 02:30:27 10,8
79 212 FREUND ARNAUD M 74 V1 19 Mon coeur vaillant 02:30:32 10,8
80 60 COUSTET CHRISTOPHE M 75 V1 20 PLAUZAT SPORT NATURE 02:31:31 10,7
81 107 DUCOURTIEUX JEAN LUC M 76 V2 7   02:31:31 10,7
82 169 TRIMAILLE LIONEL M 77 V2 8 FC BARBENTANE 02:31:56 10,7
83 275 COUTY THÉO M 78 SE 47   02:31:56 10,7
84 455 LEBRETON OLIVIER M 79 SE 48 MAT 02:32:10 10,6
85 81 HERISSON FRANCK M 80 V1 21 SPIRIDON CLUB DE LODEVE 02:32:20 10,6
86 97 ROZIER CHRISTIAN M 81 V2 9 ALAJM COSTIÈRES (ST GILLES) 02:32:41 10,6
87 487 GUIRAUD YANNICK M 82 SE 49 Sapeurs-pompiers 02:32:43 10,6
88 360 VIERRON RAPHAEL M 83 V1 22   02:32:50 10,6
89 254 CHARBONNIER VERENE F 6 SE 3 ALES CÉVENNES ATHLÉTISME 02:32:53 10,6
90 335 ODIER FLORENT M 84 SE 50   02:32:59 10,6
91 442 REVERTE SERGE M 85 V2 10 Team Intersport 02:33:10 10,6
92 224 FABARON CHRISTIAN M 86 V1 23   02:33:11 10,6
93 183 CHEVALIER LAURENT M 87 V1 24 AC CANNES 02:33:12 10,6
94 15 DURAND MATHIEU M 88 SE 51 AL ECHIROLLES 02:33:14 10,6
95 233 BELLANGER LAURENT M 89 V1 25 US TALENCE TRAIL 33 02:33:55 10,5
96 237 ROUX FRANÇOIS M 90 V3 1 ASFAS 02:34:29 10,5
97 329 VERDIER FRANCK M 91 V1 26   02:35:08 10,4
98 255 DERUAZ STÉPHANE M 92 V1 27 TRI RUN FRONTIGNAN 02:35:18 10,4
99 135 LAVERGNE JEAN-MICHEL M 93 SE 52   02:35:28 10,4
100 341 LOUVAT JEAN FRANCOIS M 94 V1 28 ALE ECHIROLLES 02:35:37 10,4
101 229 LECLERE MICHEL M 95 V1 29 COURIR À FABRÈGUES 02:36:38 10,3
102 244 TUR STEPHANE M 96 V1 30   02:36:39 10,3
103 165 DEPARIS THÉO M 97 SE 53   02:37:09 10,3
104 143 CHENEVAS FRANCK M 98 V2 11 Taillefer Trail Team 02:37:18 10,3
105 408 FAVRE JÉRÔME M 99 V1 31 CA PEZENAS 02:37:23 10,3
106 338 TROCHAIN ALEXANDRE M 100 V1 32 NL 02:37:32 10,3
107 225 GOIFFON FLORENT M 101 SE 54 VEDAS ENDURANCE 02:37:42 10,3
108 342 TROCHAIN THIERRY M 102 SE 55 NL 02:37:50 10,3
109 370 VANDEWOESTYNE MATHIEU M 103 V1 33 CASTRIES RUNNING CLUB 02:37:53 10,3
110 491 FROISSART ALEXANDRE M 104 SE 56   02:39:13 10,2
111 464 ESCUDERO CHRISTOPHE M 105 V1 34   02:39:13 10,2
112 286 FABRE SEBASTIEN M 106 SE 57   02:39:18 10,2
113 404 DAIEN VINCENT M 107 SE 58   02:39:21 10,2
114 264 TOUZE PAUL M 108 V2 12 LES DAHUS DU RHONE 02:39:28 10,2
115 79 LEMERLE CHRISTOPHE M 109 SE 59 ASPTT VALENCE 02:39:28 10,2
116 161 PICHON CEDRIC M 110 V1 35   02:39:32 10,2
117 10 ROBIN LORRAINE F 7 SE 4 ALAJM SAINT GILLES 02:39:37 10,1
118 31 BERGER PATRICE M 111 SE 60 MAUGUIO CARNON TRIATHLON 02:39:48 10,1
119 330 DAMESIN JULIEN M 112 V1 36 TRIATHLON CLUB DE LA GRANDE MOTTE 02:39:59 10,1
120 86 PENNECCHI GERARD M 113 V2 13   02:40:15 10,1
121 136 CORPART ANTOINE M 114 SE 61   02:40:21 10,1
122 291 MARTINEZ FLORENT M 115 V1 37 JCS 02:40:27 10,1
123 441 TRACHÉ RODOLPHE M 116 SE 62 ASAD AUBENAS 02:40:36 10,1
124 198 BACLET MATHIEU M 117 SE 63   02:41:03 10,1
125 197 REYNAUD DIDIER M 118 V1 38   02:41:03 10,1
126 340 GONZALEZ EMMANUEL M 119 V1 39 MAGUELONE JOGGING 02:41:03 10,1
127 297 RAZON BENOIT M 120 V1 40   02:41:05 10,1
128 202 JAMES GUILLAUME M 121 SE 64 LOUPIAN TRI NATURE 02:42:43 10
129 192 MOGNETTI CHARLES M 122 V2 14 LES TRAILERS DU PIC SAINT LOUP 02:42:53 9,9
130 4 MENGES REMY M 123 V1 41   02:43:11 9,9
131 138 GARCIA HENRI M 124 V1 42 COURIR CLUB AIGUES MORTES 02:43:21 9,9
132 278 ANGUERA LOIC M 125 V1 43 TRI RUN FRONTIGNAN 02:43:26 9,9
133 398 GOUMOT FREDERIC M 126 V1 44 COURRIR PAYS DE GRASSE 02:43:29 9,9
134 344 OLLIER GÉRALD M 127 SE 65 VEDAS ENDURANCE 02:43:31 9,9
135 445 BEGOUT CHRISTIAN M 128 V2 15 ALAJM COSTIÈRES (ST GILLES) 02:43:33 9,9
136 54 KOWAL CHRISTIAN M 129 V1 45 PERIGUEUX RUNNING 02:43:41 9,9
137 187 LEPINAY STEPHANE M 130 V1 46 EAG 02:43:47 9,9
138 258 BONNET STEPHANE M 131 V1 47 BEDARIEUX COURSE NATURE 02:43:53 9,9
139 82 LORCA DAMIEN M 132 SE 66   02:44:14 9,9
140 268 DAMETTE PASCAL M 133 V1 48 MAGUELONE JOGGING 02:44:26 9,9
141 472 ARNAIZ DAVID M 134 SE 67   02:44:31 9,8
142 296 CHOMARAT GILLES M 135 V2 16 AL ECHIROLLES 02:44:46 9,8
143 80 LEBLANC-MARTIN MARIANNE F 8 V1 4 Athletic Vallérois 02:44:54 9,8
144 302 NAVES ERIC M 136 V2 17 CASTRIES RUNNING CLUB 02:44:55 9,8
145 221 GUÉDON OLIVIER M 137 V1 49   02:44:56 9,8
146 486 HERREMAN ELIE M 138 SE 68   02:45:00 9,8
147 90 EGENSPERGER EMMANUEL M 139 V1 50   02:45:26 9,8
148 134 MARTY LAURENT M 140 SE 69   02:45:33 9,8
149 316 MANZANARES MIKAEL M 141 SE 70 VIAS TRAIL-RUNNING 02:45:35 9,8
150 470 CHEVRIAUX TRISTAN M 142 SE 71 Team Monsieur Bricolage 02:45:41 9,8
151 47 GARZON PHILIPPE M 143 V2 18 CHAMEAUX BEZIERS 02:46:13 9,7
152 300 FERET GILBERT M 144 V3 2 COURIR CLUB AIGUES-MORTES 02:46:19 9,7
153 44 SOLANS NICOLAS M 145 V1 51 Chameaux de Béziers 02:46:33 9,7
154 125 BARBERAN DORIAN M 146 SE 72   02:46:33 9,7
155 204 FURLAN CLAIRE F 9 V1 5 ALE ECHIROLLES 02:46:40 9,7
156 309 PERNEL SERGE M 147 V1 52 RUN OR DIE 02:47:01 9,7
157 160 LEBECQ CEDRIC M 148 SE 73   02:47:21 9,7
158 146 THUILLIER JULIEN M 149 SE 74 BORDEAUX ATHLE 02:47:50 9,7
159 323 CUOMO LOÏC M 150 SE 75 Les Loups Occitans 02:47:52 9,6
160 184 MESSENGER WILLIAM M 151 JU 1   02:47:54 9,6
161 159 EL MOHLI ZOUHAIR M 152 V2 19 MIREVAL 02:47:55 9,6
162 162 ALAUME DANIEL M 153 SE 76 neant 02:47:56 9,6
163 241 BRODA MAX M 154 SE 77 BESSAN RUNNING 02:48:03 9,6
164 356 BOUCHER MICKAEL M 155 SE 78 team 974 02:48:21 9,6
165 350 COURTOIS DAVID M 156 V1 53   02:48:39 9,6
166 396 BANWARTH GUILLAUME M 157 V1 54   02:48:41 9,6
167 366 CENENT CEDRIC M 158 SE 79   02:48:56 9,6
168 468 AMIET CHRISTOPHE M 159 SE 80   02:49:00 9,6
169 481 BERTOLINO EVELYNE F 10 V1 6 MA2M Montpellier 02:49:07 9,6
170 377 DOLCI DAVID M 160 SE 81 Real Corniche 02:49:10 9,6
171 476 PACTOLE JEAN-PIERRE M 161 V3 3   02:49:12 9,6
172 257 TOMTOMIAN AÏDA F 11 SE 5   02:49:19 9,6
173 256 MOUNIER LOÏC M 162 SE 82   02:49:20 9,6
174 471 MAILLO KEVIN M 163 SE 83 TEAM MR BRICOLAGE 02:49:23 9,6
175 420 VISINTIN STEPHANE M 164 V1 55 COUREURS DE SAINT GEORGES 02:49:34 9,6
176 11 BLANPAIN MARINE F 12 SE 6   02:49:39 9,5
177 449 LAFFONT JACQUES M 165 V1 56 VEDAS ENDURANCE 02:49:51 9,5
178 110 SERIN JÉRÔME M 166 SE 84 Team Serin 02:49:53 9,5
179 446 AVINENS DAVID M 167 SE 85   02:49:58 9,5
180 51 PARIZE JOEL M 168 V2 20 HORIBA MEDICAL 02:50:00 9,5
181 53 ARNAL LUCIE F 13 SE 7 bessan sport nature 02:50:06 9,5
182 207 VICENTE WILFRID M 169 V2 21 S/L AL ECHIROLLES 02:50:28 9,5
183 247 HUGOT DIDIER M 170 V3 4 BOUZIGUES 02:50:35 9,5
184 284 SACY JOHAN M 171 V1 57 BOUZIGUES 02:50:35 9,5
185 175 TAILLADE JEAN JACQUES M 172 V1 58   02:50:43 9,5
186 336 BURDIN THOMAS M 173 SE 86 FOULEE DES SORGUES 02:50:43 9,5
187 303 ZORODDU ROMAIN M 174 SE 87   02:50:43 9,5
188 293 BRENON EMMANUEL M 175 SE 88   02:50:46 9,5
189 322 FABRIES STEPHANE M 176 V1 59 TAILLEFER TRAIL TEAM 02:50:53 9,5
190 326 VERRIERE DAVID M 177 SE 89   02:50:54 9,5
191 439 NADAL ALLARIC M 178 SE 90 Mimoune team 02:50:54 9,5
192 429 URCUN MATHIEU M 179 SE 91 USAT 02:50:54 9,5
193 290 CARON JEAN-PAUL M 180 V2 22 courir en pays de grasse 02:50:56 9,5
194 440 COLOMBI JEAN-PHILIPPE M 181 V1 60   02:51:04 9,5
195 70 LOPES DE LIMA JOACHIM M 182 V2 23 Mat 02:51:10 9,5
196 144 MOUREAUX MICHAEL M 183 SE 92   02:51:12 9,5
197 363 CHUECOS DANIEL M 184 SE 93 vias trail running 02:51:33 9,4
198 142 CHAUDANSON ALEXIS M 185 ES 4 COURIR À FABRÈGUES 02:51:55 9,4
199 355 D'ORSO PHILIPPE M 186 V1 61 LOUPS OCCITANS/GENERATION SED 02:52:05 9,4
200 310 GRASSIN PHILIPPE M 187 V2 24 MA2M Montpellier 02:52:05 9,4
201 147 BERNARD GUILLAUME M 188 SE 94   02:52:10 9,4
202 307 LAMBERT PASCAL M 189 V1 62   02:52:22 9,4
203 7 GRANIER ERIC M 190 V2 25 LOUPS OCCITANS/GENERATION SED 02:52:37 9,4
204 456 RUBACH JONATHAN M 191 SE 95   02:52:48 9,4
205 334 GISONDI BENJAMIN M 192 SE 96   02:52:48 9,4
206 438 DIMAIO ALEXANDRE M 193 SE 97   02:52:54 9,4
207 373 OLIVE JEAN PHILIPPE M 194 SE 98 LÉZITRAIL 34 02:52:57 9,4
208 22 VINCENTI MARIE F 14 SE 8 MARATHON SÉTOIS 02:52:58 9,4
209 65 PLANCHER STEVE M 195 SE 99 COURIR A VAUVERT 02:53:04 9,4
210 265 JACQUES CAROLINE F 15 SE 9   02:53:14 9,4
211 219 MAUREL BRUNO M 196 V1 63 aschcyclo montpellier 02:53:25 9,3
212 217 VERNHES MARC M 197 V2 26 capmelgueil asch cyclo 02:53:26 9,3
213 41 JEANDEMANGE PASCAL M 198 V1 64   02:53:49 9,3
214 389 FAMATAMANSOA EMILE M 199 V2 27   02:53:53 9,3
215 424 ATHANASE LAURENT M 200 V1 65 Defiman Triathlon Pezenas 02:53:55 9,3
216 371 GASPAROUX JÉRÔME M 201 V1 66   02:54:09 9,3
217 321 MARTINEZ JEAN FRANCOIS M 202 SE 100   02:54:11 9,3
218 272 PROUVAT STÉPHANE M 203 V1 67   02:54:11 9,3
219 166 CAZABONNE NICOLAS M 204 V1 68   02:54:13 9,3
220 122 BOILEAU REMI M 205 V2 28 COURIR A VAUVERT 02:54:13 9,3
221 400 DUROT FREDERIC M 206 V2 29   02:54:14 9,3
222 397 FERRAND FRANCK M 207 V2 30 PEROLS FOOTING 02:54:19 9,3
223 390 ALZAS DAN M 208 SE 101 MONTPELLIER TRIATHLON 02:54:19 9,3
224 37 MILLON YVES M 209 V1 69   02:54:24 9,3
225 210 EUSTAQUIO PHILIPPE M 210 V1 70 SAINT MATHIEU ATHLÉTIC 02:54:38 9,3
226 457 CHEVALIER OLIVIER M 211 V1 71   02:54:39 9,3
227 190 CORPART THIERRY M 212 V2 31 REIMS TRIATHLON 02:54:52 9,3
228 328 DORISON BRUNO M 213 V1 72 RUN IN CRES 02:55:00 9,3
229 358 UBERTO CHARLES M 214 SE 102 Uberto 02:55:19 9,2
230 180 PARGOIRE CHRISTOPHE M 215 V1 73   02:55:27 9,2
231 478 BOSSAN EMMANUEL M 216 V1 74   02:55:41 9,2
232 26 ANFOUSSI ALEX M 217 V2 32   02:55:47 9,2
233 164 WOILGRAFFE LAURENT M 218 V1 75 VEDAS ENDURANCE 02:55:55 9,2
234 178 RICOME INGRID F 16 SE 10   02:55:57 9,2
235 75 BRUNEL JEAN-MARC M 219 V1 76 ENFANTS D ERIDAN 02:56:01 9,2
236 25 BONOT CLAUDE M 220 V4 1 SCAC 02:56:09 9,2
237 43 GIRAUD BENOIT M 221 SE 103 CASTRIES RUNNING CLUB 02:56:17 9,2
238 319 HOULES NICOLAS M 222 SE 104 PUISSALICON 02:56:21 9,2
239 262 BALDERELLI FABRICE M 223 V1 77   02:56:34 9,2
240 260 VALY VERONIQUE F 17 V2 1 PLOEREN ENDURANCE 02:56:46 9,2
241 150 SEBERT NICOLAS M 224 SE 105   02:56:46 9,2
242 263 DENOYEL BERTRAND M 225 SE 106   02:56:57 9,2
243 333 CAIREL CHARLES M 226 V1 78 MAT MONTPELLIER 02:56:59 9,2
244 499 HARRANG SEBASTIEN M 227 SE 107   02:57:07 9,1
245 367 PENLAË YANNICK M 228 SE 108   02:57:13 9,1
246 332 ROJAS SÉBASTIEN M 229 SE 109 vias trail running 02:57:16 9,1
247 473 MATHIEU-DAUDE MICHEL M 230 V2 33   02:57:20 9,1
248 18 CATHALA SANDRINE F 18 V1 7 TRIRUN FRONTIGNAN 02:57:25 9,1
249 96 TRABUCHET LUDOVIC M 231 SE 110 CASTRIES RUNNING CLUB 02:57:54 9,1
250 109 CANO GUILLAUME M 232 SE 111 TYPE 1 RUNNING TEAM 02:57:54 9,1
251 466 CANARD PASCAL M 233 V2 34 CASTRIES RUNNING CLUB 02:57:57 9,1
252 240 ARDIET ROXANE F 19 SE 11 Courir en garrigue Poulx 02:58:12 9,1
253 427 DOS SANTOS PIERRE M 234 V1 79 ASEM MONTPELLIER RUNNING 02:58:21 9,1
254 206 MAZZIER JULIEN M 235 SE 112 COURIR A VAUVERT 02:58:22 9,1
255 315 CHAUDESAYGUES ERIC M 236 V2 35 LES BIPÈDES DE LA VAUNAGE 02:58:42 9,1
256 407 BAECKEROOT BENJAMIN M 237 SE 113   02:58:44 9,1
257 23 HENRION RÉMI M 238 SE 114 MARATHON SÉTOIS 02:58:52 9,1
258 285 NAL CHRISTOPHE M 239 V1 80   02:59:02 9
259 461 RAVAT FLORENT M 240 SE 115   02:59:04 9
260 127 DUTHOIT OLIVIER M 241 V2 36 MAUGUIO CARNON TRIATHLON 02:59:05 9
261 1 MELLET JEAN-CHRISTOPHE M 242 V1 81 MA2M 02:59:45 9
262 317 MARTINEZ CHRISTIAN M 243 V2 37 perols footing 02:59:45 9
263 17 MOMPERT LAURENT M 244 V1 82   02:59:47 9
264 288 MAGLIERI FABRICE M 245 V1 83 athletic club pays de l'ourcq 03:00:22 9
265 415 BARGE FREDERIC M 246 V1 84 COUREURS DE ST GEORGES 03:00:28 9
266 228 LECLERE SABINE F 20 V1 8 COURIR À FABRÈGUES 03:00:39 9
267 378 PAUL BENOIT M 247 SE 116 Vtthau 03:00:46 9
268 414 BRUN FABRICE M 248 V2 38 COUREURS DE SAINT GEORGES 03:00:46 9
269 405 COFFARO ALAIN M 249 V1 85   03:00:58 9
270 58 CABO PATRICK M 250 V1 86 COURIR CLUB AIGUES MORTES 03:01:19 8,9
271 496 VERE ALAIN M 251 V2 39 VEDAS ENDURANCE 03:01:53 8,9
272 49 MORENO JEAN-CHRISTOPHE M 252 SE 117   03:01:55 8,9
273 45 HUET CHRISTIAN M 253 SE 118 RAIDLIGHT TEAM 03:02:01 8,9
274 292 VIE PASCAL M 254 V1 87   03:02:23 8,9
275 36 MARTIN DANIEL M 255 V2 40 ASVBC 03:02:25 8,9
276 170 LE GOFF FABIEN M 256 V1 88 POMPIERS HERAULT 03:02:29 8,9
277 353 NOBLET SEBASTIEN M 257 V1 89 PORTET ATHLETIC CLUB 03:02:30 8,9
278 111 RETUERTA DOMINIQUE F 21 V1 9 PORTET ATHLETIC CLUB 03:02:30 8,9
279 266 CARCENAC GAUTIER M 258 SE 119   03:02:32 8,9
280 106 MAINCENT PIERRE-FRANÇOIS M 259 SE 120   03:02:39 8,9
281 282 VAILLS JEAN-SÉBASTIEN M 260 V1 90   03:02:58 8,9
282 451 GOU NICOLAS M 261 V1 91   03:03:04 8,8
283 357 HILDEBRANDT HOLGER M 262 V1 92 JOGGING LAVERUNE 03:03:09 8,8
284 274 FOURCADE GEORGES M 263 V1 93   03:03:10 8,8
285 483 HAGEN PAUL M 264 V1 94   03:03:12 8,8
286 349 GUERY JEAN CHARLES M 265 SE 121   03:03:13 8,8
287 93 RENAUDIN HUGO M 266 JU 2   03:03:16 8,8
288 462 GIL BENJAMIN M 267 SE 122   03:03:22 8,8
289 151 DEY FABRICE M 268 SE 123 PEROLS FOOTING 03:03:31 8,8
290 236 DELESTRA ESTELLE F 22 SE 12 ASFAS 03:03:43 8,8
291 314 ADGÉ CHRISTOPHE M 269 V1 95   03:03:48 8,8
292 63 BATIFOULIER SEVERINE F 23 V1 10 PLAUZAT SPORT NATURE 03:03:49 8,8
293 59 COUSTET LAETITIA F 24 SE 13 PLAUZAT SPORT NATURE 03:03:49 8,8
294 283 GARCON ROLAND M 270 V1 96   03:03:59 8,8
295 208 LEROY PHILIPPE M 271 V3 5 LA FOULEE MEYNOISE 03:04:16 8,8
296 21 DELBREIL PASCAL M 272 V1 97   03:04:20 8,8
297 379 VABRE STÉPHANIE F 25 V1 11 TRI RUN FRONTIGNAN 03:04:27 8,8
298 305 GOURSAU NADÈGE F 26 V1 12 TAILLAVENTURE 03:04:30 8,8
299 118 LANGFORD PAUL M 273 SE 124   03:04:42 8,8
300 77 LEPORALE FLORIANNE F 27 SE 14 UA MAURIENNE 03:04:52 8,8
301 173 RABARTIN EMERIC M 274 V1 98 UA MAURIENNE 03:04:53 8,8
302 73 MAJOULET OLIVIER M 275 SE 125   03:04:57 8,8
303 277 PRESSENDA JEAN-BRICE M 276 V1 99   03:05:02 8,8
304 354 MALET LAURENT M 277 V1 100   03:05:17 8,7
305 220 CAZENAVE-TAPIE LAURIE F 28 SE 15   03:05:19 8,7
306 382 DIAZ MARIE CARMEN F 29 V1 13 COURIR ENTRE POTES 03:05:37 8,7
307 381 ENJALRIC YVES M 278 V2 41   03:05:37 8,7
308 163 VANDAELE THIERRY M 279 SE 126   03:05:42 8,7
309 435 GAKRELIDZ PHILIPPE M 280 V3 6 COURIR À FABRÈGUES 03:05:43 8,7
310 425 SIST CÉLINE F 30 V1 14 SAINT MATHIEU ATHLÉTIC 03:05:45 8,7
311 242 BAUD GUILLAUME M 281 V1 101   03:05:46 8,7
312 243 KWIATEK OLIVIER M 282 V1 102   03:05:46 8,7
313 105 PINCHON MAXIME M 283 SE 127   03:05:48 8,7
314 238 FELIX CHRISTINE F 31 V1 15 LES BIPÈDES DE LA VAUNAGE 03:05:55 8,7
315 308 THERESE HANH F 32 SE 16   03:05:59 8,7
316 195 GAUTHÉ ENRIQUE M 284 V2 42   03:06:05 8,7
317 117 MARTIN PHILIPPE M 285 V2 43   03:06:12 8,7
318 174 LAGRANGE ERIC M 286 V1 103 Chalon triathlon Club 71 03:06:14 8,7
319 215 LAURET Ronald M 287 V1 104   03:06:23 8,7
320 467 DE LA PENA JEAN M 288 V2 44 CAP MELGUEIL 03:06:31 8,7
321 498 PEREZ DANIEL M 289 V1 105   03:06:41 8,7
322 230 BUIXO FRÉDÉRICK M 290 V1 106   03:06:47 8,7
323 261 DEBOVES ROMAIN M 291 SE 128 CA BALMA 03:07:14 8,7
324 116 BENIT BASTIEN M 292 SE 129   03:07:30 8,6
325 38 LEPAUMIER JEROME M 293 SE 130 TORO 03:07:42 8,6
326 337 PHILIPPE YON M 294 V2 45 neant 03:07:52 8,6
327 434 GRECO DAVID M 295 V1 107 LE BOL D'AIR GIGNACOIS 03:07:56 8,6
328 392 CAUQUIL REGIS M 296 V1 108 POMPIER MONTADY 03:08:03 8,6
329 388 ORTIZ JACQUES M 297 V1 109 POMPIER MONTADY 03:08:03 8,6
330 39 TANGUY THIERRY M 298 V2 46 MAGUELONE JOGGING 03:08:09 8,6
331 32 BARRAU FRÉDÉRIC M 299 V1 110   03:08:18 8,6
332 437 D'ANTONIO MAURIZIO M 300 V1 111   03:08:28 8,6
333 124 RIEU NICOLAS M 301 SE 131   03:08:31 8,6
334 88 ABILY SOPHIE F 33 SE 17 Montauban TRI 03:08:42 8,6
335 148 HOMPS MICHEL M 302 V2 47 VEDAS ENDURANCE 03:08:51 8,6
336 365 MULET CELINE F 34 V1 16 Trail Entre Elles 03:08:59 8,6
337 362 GALTIER BRUNO M 303 V1 112   03:09:03 8,6
338 158 GUIOT THIERRY M 304 V1 113   03:09:48 8,5
339 89 SERIN ERIC M 305 V1 114 Tri'Ox 03:09:49 8,5
340 52 VASSEUR JACKY M 306 SE 132   03:09:55 8,5
341 216 PARADIS ANDRE M 307 V3 7 COURIR À FABRÈGUES 03:10:08 8,5
342 74 PIQUE LAURENT M 308 V1 115   03:10:11 8,5
343 139 GUÉNOT PATRICK M 309 V1 116 les blacks cats 03:10:11 8,5
344 133 MONTRIEUL MAUD F 35 V1 17 TRIATHLON CLUB LA GRANDE MOTTE 03:10:18 8,5
345 46 BELOT PASCAL M 310 V1 117 TOBESPORT 03:10:18 8,5
346 318 PICQUE NICOLAS M 311 SE 133   03:10:23 8,5
347 463 VIGUIER FLORENT M 312 V1 118   03:11:02 8,5
348 231 BUIXO PATRICE M 313 V1 119   03:11:02 8,5
349 55 SANCHIZ FREDERIC M 314 V1 120 Vtthau 03:11:05 8,5
350 433 DAUCE PIERRE M 315 V3 8 jS LEZIGNAN CORBIERES 03:11:17 8,5
351 267 MANZANARES JEAN M 316 V3 9 LEZITRAIL34 03:11:19 8,5
352 500 AUBERTIN FRANCOIS M 317 V1 121 TCN 03:11:31 8,5
353 393 PEREZ MARIE F 36 SE 18 COURIR À FABRÈGUES 03:11:33 8,5
354 428 CROLARD MATHIEU M 318 SE 134   03:11:36 8,5
355 502 LLORCA LUDOVIC M 319 V1 122   03:11:38 8,5
356 3 PIOU CYRILLE M 320 V1 123 RUN ADDICT TEAM 03:11:44 8,4
357 132 SARRUT JACQUES M 321 V1 124 CLERMONT SPORT ENDURANCE 03:12:03 8,4
358 137 JULIA FABIEN M 322 SE 135   03:12:06 8,4
359 289 CARON NATHALIE F 37 V2 2 courir en pays de grasse 03:12:10 8,4
360 401 MUNOZ RENAUD M 323 SE 136   03:12:33 8,4
361 205 PARENT ANTOINE M 324 SE 137   03:12:38 8,4
362 493 BAREIL LAURENT M 325 SE 138   03:13:04 8,4
363 102 PHO LAETITIA F 38 SE 19 PARIS AVENIR ATHLETIC 03:13:15 8,4
364 188 VEROT PIERRE M 326 V1 125   03:13:19 8,4
365 211 CALAS PHILIPPE M 327 V2 48   03:13:42 8,4
366 200 CHANCEL JACQUES M 328 V2 49   03:13:42 8,4
367 343 CANCES MICHEL M 329 V2 50   03:13:42 8,4
368 194 CAMUS CHRISTOPHE M 330 V1 126 FOS OLYMPIQUE CLUB 03:13:49 8,4
369 453 BOURREZ STEPHAN F 39 V1 18 Defiman Triathlon Pezenas 03:14:19 8,3
370 489 VEDRINES IVAN M 331 SE 139 ACP AGDE 03:14:27 8,3
371 222 ESCUDERO ERIC M 332 SE 140 COURIR A VAUVERT 03:14:50 8,3
372 485 SALES THIBAUT M 333 SE 141   03:15:45 8,3
373 490 DEMONCHEAUX JÉRÔME M 334 V1 127 acpa agde 03:16:26 8,2
374 155 RABBE RENE M 335 V2 51 ACBP 03:16:30 8,2
375 423 MAURIN DAVID M 336 SE 142   03:17:33 8,2
376 120 GODINEAU AGNES F 40 V2 3 MAUGUIO CARNON TRIATHLON 03:17:41 8,2
377 465 TISON PASCAL M 337 V2 52   03:17:50 8,2
378 9 BESSET IVAN M 338 V1 128   03:18:00 8,2
379 474 TANGUY JEAN-PAUL M 339 V3 10 TAM MONTADY 03:18:17 8,2
380 259 BONNET CHRISTEL F 41 V1 19 BEDARIEUX COURSE NATURE 03:18:32 8,2
381 448 VALDEYRON JEAN-CHRISTOPHE M 340 V1 129 FOULEES PELISSANNAISES 03:19:09 8,1
382 27 GEMINARD GUILLAUME M 341 V1 130   03:19:25 8,1
383 128 SAHUC JULIEN M 342 SE 143   03:19:31 8,1
384 99 GOBARD LIONEL M 343 SE 144   03:19:34 8,1
385 189 DING JIEYUN F 42 SE 20   03:19:54 8,1
386 104 MODELSKI GUILLAUME M 344 SE 145 Modelski 03:20:15 8,1
387 182 DIDERON YVES M 345 V3 11 EVA VAUVERT 03:20:52 8,1
388 432 LOUDCHER DIDIER M 346 V2 53 COURIR À FABRÈGUES 03:21:44 8
389 287 LARGUIER CARINE F 43 SE 21   03:21:45 8
390 12 SAPIEN JEAN-MICHEL M 347 V3 12 CE ADISSEO 03:21:46 8
391 13 SAPIEN JULIEN M 348 SE 146   03:21:51 8
392 101 RAMEL VINCENT M 349 SE 147   03:22:41 8
393 384 DELPECH STEPHANE M 350 SE 148   03:23:02 8
394 16 DE ROYER DUPRÉ NICOLAS M 351 SE 149   03:23:04 8
395 480 AUDRAN GUILLAUME M 352 SE 150   03:23:08 8
396 372 GRUCKER CINDYA F 44 SE 22   03:24:41 7,9
397 157 GINESTE NELLY F 45 V1 20 CLERMONT SPORT ENDURANCE 03:24:59 7,9
398 20 BOULARAN FLORIAN M 353 V1 131 PORTET ATHLETIC CLUB 03:25:25 7,9
399 28 FROMENT FRÉDÉRIC M 354 V1 132   03:26:01 7,9
400 327 DORISON VALÉRIE F 46 V1 21 RUN IN CRES 03:26:27 7,8
401 176 MERGAULT LOUIS M 355 V2 54 fouladous balaruc les bains 03:26:38 7,8
402 249 LAYROLLE ROLAND M 356 V2 55   03:26:45 7,8
403 177 VERGNES JÉRÔME M 357 V1 133 SAUSSAN 03:27:40 7,8
404 505 RISBECQ HELENE F 47 SE 23   03:27:55 7,8
405 87 JULVE FREDERIC M 358 SE 151   03:28:01 7,8
406 444 CATHALA THIERRY M 359 V1 134   03:28:17 7,8
407 85 MAUGER LISA F 48 SE 24   03:29:02 7,7
408 426 SIST PHILIPPE M 360 V1 135 SAINT MATHIEU ATHLÉTIC 03:29:20 7,7
409 459 MICHEL ISABELLE F 49 V1 22 MAGUELONE JOGGING 03:29:20 7,7
410 395 CORIO PHILIPPE M 361 V2 56   03:29:33 7,7
411 320 MICELI LIDWINE F 50 SE 25   03:30:09 7,7
412 2 BENOIT CEDRIC M 362 SE 152 ACL LATTES 03:30:19 7,7
413 417 LEROY FLORENCE F 51 V2 4 RUN IN CRES 03:30:48 7,7
414 488 DEREUMAUX FABRICE M 363 V1 136   03:30:50 7,7
415 34 OBERTI JEAN M 364 V3 13 Bol d'Air Gignacois 03:31:13 7,7
416 492 PRIORE CEDRIC M 365 SE 153   03:31:54 7,6
417 416 JOLLY FRANCIS M 366 V3 14   03:32:24 7,6
418 33 PEIGNAUX MATHIEU M 367 SE 154   03:32:45 7,6
419 299 REVESSA VINCENT M 368 SE 155   03:34:19 7,6
420 361 DAU JEAN-FRANCOIS M 369 V2 57   03:35:22 7,5
421 402 BOUSQUET ARNAUD M 370 SE 156 crossfit béziers 03:35:47 7,5
422 386 HONG DARAVANN M 371 SE 157   03:36:13 7,5
423 312 VEDRENNE BERTRAND M 372 V1 137   03:36:27 7,5
424 295 RODRIGUEZ FREDERIC M 373 V2 58 aschcyclo montpellier 03:37:31 7,4
425 131 MORENGHI MURIEL F 52 V2 5   03:38:35 7,4
426 347 CLAVAUD DOMINIQUE F 53 V1 23 AC AUCH 03:39:29 7,4
427 234 CROSNIER SYLVIE F 54 V3 1 ASFAS 03:40:26 7,3
428 115 BRO JEAN-MARIE M 374 V1 138   03:40:55 7,3
429 191 LUCIEN PASCAL M 375 V1 139   03:41:21 7,3
430 306 BRIZE MURIELLE F 55 V1 24   03:41:21 7,3
431 193 ORMIERES GREGORY M 376 SE 158   03:41:23 7,3
432 479 ROZIERES AMANDINE F 56 SE 26 CLUB MARATHON SÉTOIS 03:41:29 7,3
433 351 SOULAGES VICTOIRE F 57 SE 27   03:43:11 7,3
434 348 FAVRET FABRICE M 377 V1 140   03:43:12 7,3
435 186 LAKOUSSANH LAURENT M 378 V1 141 VEDAS ENDURANCE 03:43:20 7,3
436 185 MARCOTTE GAUTHIER M 379 V1 142 VEDAS ENDURANCE 03:43:21 7,3
437 331 COSTE JULIEN M 380 SE 159   03:45:19 7,2
438 281 BERNES JOSIANE F 58 V2 6 CLERMONT SPORT ENDURANCE 03:45:26 7,2
439 84 LE GOFF REMY M 381 SE 160 herbalife nutrition 03:45:48 7,2
440 447 GUIBAL DIDIER M 382 V2 59 PPO2 03:47:34 7,1
441 469 AZOR FABRICE M 383 V1 143 Team ENDEMIQUE 03:47:35 7,1
442 430 VIALA GUYLAINE F 59 SE 28 Team du Roc de la Lune 03:47:57 7,1
443 431 MALLOL CEDRIC M 384 V1 144 Team du Roc de la Lune 03:48:00 7,1
444 421 BIRAS ANNE MARIE F 60 V4 1   03:48:02 7,1
445 304 GROUAS VALERIE F 61 V1 25 CLERMONT ENDURANCE 03:48:15 7,1
446 376 CHAUDESAYGUES OLIVIER M 385 V2 60   03:48:37 7,1
447 72 ESTRIC JOEL M 386 V2 61   03:52:17 7
448 5 TORNABENE ESTHER F 62 V3 2 CMI TULLINS 03:53:41 6,9
449 209 DOU-EUSTAQUIO CATHERINE F 63 V2 7 SAINT MATHIEU ATHLÉTIC 03:53:42 6,9
450 406 COFFARO ELISABELLE F 64 V1 26   03:56:04 6,9
451 123 BOILEAU PATRICIA F 65 V3 3 COURIR A VAUVERT 03:56:14 6,9
452 42 CHUZEVILLE-HENRY LAETITIA F 66 V1 27   03:59:14 6,8
453 495 ADIB JÉRÔME M 387 SE 161   04:02:48 6,7
454 156 CONDOMINE CHANTAL F 67 V2 8 ACBP 04:06:08 6,6
455 346 SONNECK JEAN-FRANCOIS M 388 V4 2 SAINT MATHIEU ATHLÉTIC 04:41:09 5,8